createdAt,value
2018-05-09T00:00:07.433Z,18.50
2018-05-09T00:01:07.352Z,18.47
2018-05-09T00:03:00.630Z,18.47
2018-05-09T00:04:00.571Z,18.47
2018-05-09T00:05:53.872Z,18.50
2018-05-09T00:06:53.791Z,18.41
2018-05-09T00:08:47.174Z,18.42
2018-05-09T00:09:47.015Z,18.27
2018-05-09T00:11:40.341Z,18.38
2018-05-09T00:12:40.262Z,18.31
2018-05-09T00:14:33.562Z,18.23
2018-05-09T00:15:33.482Z,18.27
2018-05-09T00:17:26.754Z,18.35
2018-05-09T00:18:26.696Z,18.21
2018-05-09T00:20:19.999Z,18.24
2018-05-09T00:21:19.915Z,18.19
2018-05-09T00:23:13.197Z,18.20
2018-05-09T00:24:13.138Z,18.20
2018-05-09T00:26:06.435Z,18.29
2018-05-09T00:27:06.357Z,18.24
2018-05-09T00:28:59.643Z,18.20
2018-05-09T00:29:59.577Z,18.23
2018-05-09T00:31:52.876Z,18.20
2018-05-09T00:32:52.796Z,18.29
2018-05-09T00:34:46.098Z,18.20
2018-05-09T00:35:46.019Z,18.23
2018-05-09T00:37:39.403Z,18.20
2018-05-09T00:38:39.240Z,18.10
2018-05-09T00:40:32.539Z,18.10
2018-05-09T00:41:32.460Z,18.14
2018-05-09T00:43:25.740Z,17.92
2018-05-09T00:44:25.683Z,17.94
2018-05-09T00:46:18.979Z,17.92
2018-05-09T00:47:18.901Z,17.90
2018-05-09T00:49:13.030Z,17.90
2018-05-09T00:50:12.979Z,17.86
2018-05-09T00:52:06.868Z,17.83
2018-05-09T00:53:06.261Z,17.80
2018-05-09T00:54:59.665Z,17.79
2018-05-09T00:55:59.484Z,17.81
2018-05-09T00:57:52.765Z,17.76
2018-05-09T00:58:52.703Z,17.69
2018-05-09T01:00:46.004Z,17.76
2018-05-09T01:01:45.925Z,17.55
2018-05-09T01:03:39.201Z,17.60
2018-05-09T01:04:39.140Z,17.60
2018-05-09T01:06:32.439Z,17.52
2018-05-09T01:07:32.377Z,17.54
2018-05-09T01:09:25.639Z,17.49
2018-05-09T01:10:25.577Z,17.47
2018-05-09T01:12:19.874Z,17.54
2018-05-09T01:13:19.794Z,17.52
2018-05-09T01:15:13.094Z,17.38
2018-05-09T01:16:13.017Z,17.38
2018-05-09T01:18:06.325Z,17.35
2018-05-09T01:19:06.264Z,17.32
2018-05-09T01:20:59.075Z,17.35
2018-05-09T01:21:58.990Z,17.32
2018-05-09T01:23:52.322Z,17.31
2018-05-09T01:24:52.260Z,17.28
2018-05-09T01:26:45.558Z,17.24
2018-05-09T01:27:45.478Z,17.18
2018-05-09T01:29:38.759Z,17.21
2018-05-09T01:30:38.697Z,17.20
2018-05-09T01:32:32.100Z,17.18
2018-05-09T01:33:31.918Z,17.21
2018-05-09T01:35:26.211Z,17.15
2018-05-09T01:36:26.132Z,17.09
2018-05-09T01:38:20.414Z,17.20
2018-05-09T01:39:20.350Z,17.18
2018-05-09T01:41:13.650Z,17.22
2018-05-09T01:42:13.566Z,17.21
2018-05-09T01:44:06.952Z,17.22
2018-05-09T01:45:06.784Z,17.21
2018-05-09T01:47:00.083Z,17.09
2018-05-09T01:48:00.003Z,17.13
2018-05-09T01:49:53.300Z,17.09
2018-05-09T01:50:53.222Z,17.00
2018-05-09T01:52:46.519Z,17.05
2018-05-09T01:53:46.439Z,16.92
2018-05-09T01:55:39.839Z,17.07
2018-05-09T01:56:39.656Z,17.03
2018-05-09T01:58:32.936Z,17.07
2018-05-09T01:59:32.872Z,16.94
2018-05-09T02:01:26.169Z,17.00
2018-05-09T02:02:26.089Z,17.03
2018-05-09T02:04:19.366Z,17.05
2018-05-09T02:05:19.307Z,16.92
2018-05-09T02:07:12.608Z,16.97
2018-05-09T02:08:12.528Z,16.95
2018-05-09T02:10:05.842Z,16.87
2018-05-09T02:11:05.743Z,16.91
2018-05-09T02:12:59.022Z,16.90
2018-05-09T02:13:58.960Z,16.82
2018-05-09T02:15:52.348Z,16.73
2018-05-09T02:16:52.260Z,16.74
2018-05-09T02:18:45.641Z,16.74
2018-05-09T02:19:45.481Z,16.66
2018-05-09T02:21:38.877Z,16.77
2018-05-09T02:22:38.697Z,16.81
2018-05-09T02:24:31.980Z,16.76
2018-05-09T02:25:31.915Z,16.76
2018-05-09T02:27:25.196Z,16.73
2018-05-09T02:28:25.117Z,16.69
2018-05-09T02:30:18.426Z,16.70
2018-05-09T02:31:18.379Z,16.62
2018-05-09T02:33:11.623Z,16.65
2018-05-09T02:34:11.560Z,16.58
2018-05-09T02:36:04.857Z,16.62
2018-05-09T02:37:04.776Z,16.55
2018-05-09T02:38:58.085Z,16.58
2018-05-09T02:39:58.024Z,16.52
2018-05-09T02:41:51.423Z,16.58
2018-05-09T02:42:51.238Z,16.62
2018-05-09T02:44:44.520Z,16.58
2018-05-09T02:45:44.461Z,16.55
2018-05-09T02:47:37.756Z,16.54
2018-05-09T02:48:37.679Z,16.58
2018-05-09T02:50:31.081Z,16.63
2018-05-09T02:51:30.895Z,16.59
2018-05-09T02:53:24.173Z,16.52
2018-05-09T02:54:24.109Z,16.51
2018-05-09T02:56:17.408Z,16.51
2018-05-09T02:57:17.329Z,16.51
2018-05-09T02:59:10.607Z,16.48
2018-05-09T03:00:10.543Z,16.49
2018-05-09T03:02:03.840Z,16.54
2018-05-09T03:03:03.764Z,16.49
2018-05-09T03:04:57.141Z,16.33
2018-05-09T03:05:56.979Z,16.32
2018-05-09T03:07:50.345Z,16.34
2018-05-09T03:08:50.264Z,16.25
2018-05-09T03:10:43.560Z,16.25
2018-05-09T03:11:43.481Z,16.27
2018-05-09T03:13:36.860Z,16.32
2018-05-09T03:14:36.693Z,16.33
2018-05-09T03:16:29.990Z,16.29
2018-05-09T03:17:29.905Z,16.22
2018-05-09T03:19:23.192Z,16.26
2018-05-09T03:20:23.140Z,16.33
2018-05-09T03:22:16.523Z,16.21
2018-05-09T03:23:16.338Z,16.27
2018-05-09T03:25:09.726Z,16.21
2018-05-09T03:26:09.555Z,16.21
2018-05-09T03:28:02.953Z,16.18
2018-05-09T03:29:02.769Z,16.21
2018-05-09T03:30:56.064Z,16.17
2018-05-09T03:31:56.088Z,16.17
2018-05-09T03:33:49.272Z,16.14
2018-05-09T03:34:49.220Z,16.08
2018-05-09T03:36:42.506Z,16.04
2018-05-09T03:37:42.425Z,16.07
2018-05-09T03:39:35.703Z,16.02
2018-05-09T03:40:35.640Z,15.93
2018-05-09T03:42:29.937Z,15.96
2018-05-09T03:43:29.856Z,15.98
2018-05-09T03:45:23.156Z,15.96
2018-05-09T03:46:23.071Z,15.96
2018-05-09T03:48:16.370Z,15.99
2018-05-09T03:49:16.290Z,15.88
2018-05-09T03:51:09.583Z,15.86
2018-05-09T03:52:09.503Z,15.88
2018-05-09T03:54:02.780Z,15.98
2018-05-09T03:55:02.718Z,15.99
2018-05-09T03:56:56.117Z,15.88
2018-05-09T03:57:55.935Z,15.99
2018-05-09T03:59:49.208Z,15.92
2018-05-09T04:00:49.149Z,15.91
2018-05-09T04:02:42.547Z,15.86
2018-05-09T04:03:42.361Z,15.92
2018-05-09T04:05:35.637Z,15.91
2018-05-09T04:06:35.575Z,15.91
2018-05-09T04:08:28.873Z,15.88
2018-05-09T04:09:28.854Z,15.81
2018-05-09T04:11:22.093Z,15.96
2018-05-09T04:12:22.013Z,15.89
2018-05-09T04:14:15.393Z,15.86
2018-05-09T04:15:15.226Z,15.93
2018-05-09T04:17:08.522Z,15.81
2018-05-09T04:18:08.442Z,15.80
2018-05-09T04:20:01.830Z,15.84
2018-05-09T04:21:01.658Z,15.80
2018-05-09T04:22:54.953Z,15.93
2018-05-09T04:23:54.874Z,15.88
2018-05-09T04:25:48.255Z,16.00
2018-05-09T04:26:48.090Z,15.89
2018-05-09T04:28:42.381Z,15.92
2018-05-09T04:29:42.299Z,15.99
2018-05-09T04:31:35.594Z,15.88
2018-05-09T04:32:35.515Z,16.02
2018-05-09T04:34:28.794Z,15.99
2018-05-09T04:35:28.728Z,16.00
2018-05-09T04:37:22.127Z,16.04
2018-05-09T04:38:21.934Z,16.07
2018-05-09T04:40:15.211Z,15.98
2018-05-09T04:41:15.150Z,16.14
2018-05-09T04:43:08.549Z,16.16
2018-05-09T04:44:08.364Z,16.29
2018-05-09T04:46:01.642Z,16.22
2018-05-09T04:47:01.578Z,16.21
2018-05-09T04:48:54.876Z,16.17
2018-05-09T04:49:54.828Z,16.21
2018-05-09T04:51:48.091Z,16.30
2018-05-09T04:52:48.009Z,16.29
2018-05-09T04:54:41.287Z,16.33
2018-05-09T04:55:41.407Z,16.34
2018-05-09T04:57:34.627Z,16.34
2018-05-09T04:58:34.439Z,16.30
2018-05-09T05:00:27.719Z,16.32
2018-05-09T05:01:27.673Z,16.26
2018-05-09T05:03:20.959Z,16.32
2018-05-09T05:04:20.876Z,16.33
2018-05-09T05:06:15.153Z,16.33
2018-05-09T05:07:15.089Z,16.29
2018-05-09T05:09:09.385Z,16.47
2018-05-09T05:10:09.305Z,16.39
2018-05-09T05:12:02.598Z,16.52
2018-05-09T05:13:02.516Z,16.54
2018-05-09T05:14:55.898Z,16.52
2018-05-09T05:15:55.729Z,16.59
2018-05-09T05:17:49.026Z,16.66
2018-05-09T05:18:48.944Z,16.69
2018-05-09T05:20:42.327Z,16.70
2018-05-09T05:21:42.160Z,16.80
2018-05-09T05:23:35.456Z,16.91
2018-05-09T05:24:35.375Z,16.80
2018-05-09T05:26:28.649Z,16.87
2018-05-09T05:27:28.590Z,16.91
2018-05-09T05:29:21.875Z,16.90
2018-05-09T05:30:21.792Z,16.90
2018-05-09T05:32:15.089Z,16.97
2018-05-09T05:33:15.010Z,16.94
2018-05-09T05:35:08.323Z,16.97
2018-05-09T05:36:08.260Z,17.02
2018-05-09T05:38:01.546Z,17.15
2018-05-09T05:39:01.466Z,17.21
2018-05-09T05:40:54.740Z,17.32
2018-05-09T05:41:54.679Z,17.32
2018-05-09T05:43:48.080Z,17.31
2018-05-09T05:44:47.898Z,17.39
2018-05-09T05:46:41.172Z,17.55
2018-05-09T05:47:41.110Z,17.55
2018-05-09T05:49:34.408Z,17.66
2018-05-09T05:50:34.328Z,17.69
2018-05-09T05:52:27.729Z,17.62
2018-05-09T05:53:27.545Z,17.58
2018-05-09T05:55:20.927Z,17.77
2018-05-09T05:56:20.760Z,17.81
2018-05-09T05:58:14.046Z,17.94
2018-05-09T05:59:13.966Z,17.99
2018-05-09T06:01:07.245Z,17.94
2018-05-09T06:02:07.184Z,18.11
2018-05-09T06:04:00.480Z,18.08
2018-05-09T06:05:00.403Z,18.23
2018-05-09T06:06:53.667Z,18.19
2018-05-09T06:07:53.648Z,18.29
2018-05-09T06:09:46.907Z,18.42
2018-05-09T06:10:46.822Z,18.42
2018-05-09T06:12:40.128Z,18.45
2018-05-09T06:13:40.041Z,18.47
2018-05-09T06:15:33.319Z,18.61
2018-05-09T06:16:33.262Z,18.65
2018-05-09T06:18:26.565Z,18.72
2018-05-09T06:19:26.484Z,18.65
2018-05-09T06:21:19.768Z,18.76
2018-05-09T06:22:19.703Z,18.82
2018-05-09T06:24:13.021Z,18.87
2018-05-09T06:25:12.922Z,19.00
2018-05-09T06:27:06.195Z,19.10
2018-05-09T06:28:06.134Z,19.16
2018-05-09T06:29:59.446Z,19.30
2018-05-09T06:30:59.363Z,19.30
2018-05-09T06:32:52.762Z,19.45
2018-05-09T06:33:52.582Z,19.49
2018-05-09T06:35:45.865Z,19.53
2018-05-09T06:36:45.805Z,19.63
2018-05-09T06:38:39.103Z,19.86
2018-05-09T06:39:39.023Z,19.92
2018-05-09T06:41:32.376Z,19.95
2018-05-09T06:42:32.266Z,20.16
2018-05-09T06:44:25.605Z,21.00
2018-05-09T06:45:25.482Z,21.64
2018-05-09T06:47:18.753Z,22.85
2018-05-09T06:48:18.695Z,22.81
2018-05-09T06:50:11.996Z,23.35
2018-05-09T06:51:11.918Z,23.63
2018-05-09T06:53:05.216Z,23.89
2018-05-09T06:54:05.138Z,23.78
2018-05-09T06:55:58.415Z,24.19
2018-05-09T06:56:58.359Z,24.18
2018-05-09T06:58:51.655Z,24.37
2018-05-09T06:59:51.619Z,24.49
2018-05-09T07:01:44.973Z,24.46
2018-05-09T07:02:44.804Z,24.42
2018-05-09T07:04:38.103Z,24.32
2018-05-09T07:05:38.027Z,24.07
2018-05-09T07:07:31.307Z,24.22
2018-05-09T07:08:31.258Z,23.90
2018-05-09T07:10:24.670Z,24.30
2018-05-09T07:11:24.479Z,24.46
2018-05-09T07:13:17.790Z,25.04
2018-05-09T07:14:17.715Z,25.11
2018-05-09T07:16:10.999Z,25.15
2018-05-09T07:17:10.947Z,24.85
2018-05-09T07:19:05.259Z,25.00
2018-05-09T07:20:05.185Z,25.01
2018-05-09T07:21:58.469Z,25.37
2018-05-09T07:22:58.415Z,25.22
2018-05-09T07:24:52.719Z,24.49
2018-05-09T07:25:52.647Z,24.22
2018-05-09T07:27:45.935Z,24.22
2018-05-09T07:28:45.880Z,24.48
2018-05-09T07:30:39.186Z,24.89
2018-05-09T07:31:39.113Z,24.92
2018-05-09T07:33:32.418Z,25.41
2018-05-09T07:34:32.344Z,25.62
2018-05-09T07:36:25.739Z,25.52
2018-05-09T07:37:25.579Z,25.67
2018-05-09T07:39:18.882Z,25.15
2018-05-09T07:40:18.811Z,25.22
2018-05-09T07:42:13.136Z,25.26
2018-05-09T07:43:13.048Z,25.32
2018-05-09T07:45:06.352Z,25.09
2018-05-09T07:46:06.276Z,25.23
2018-05-09T07:48:00.243Z,25.39
2018-05-09T07:48:59.516Z,25.05
2018-05-09T07:50:52.865Z,24.66
2018-05-09T07:51:52.795Z,24.78
2018-05-09T07:53:46.099Z,24.94
2018-05-09T07:54:46.026Z,24.71
2018-05-09T07:56:39.321Z,24.61
2018-05-09T07:57:39.255Z,24.97
2018-05-09T07:59:32.564Z,25.17
2018-05-09T08:00:32.487Z,25.38
2018-05-09T08:02:25.880Z,25.23
2018-05-09T08:03:25.721Z,25.04
2018-05-09T08:05:19.020Z,24.66
2018-05-09T08:06:18.948Z,24.59
2018-05-09T08:08:12.841Z,25.00
2018-05-09T08:09:12.179Z,24.87
2018-05-09T08:11:05.483Z,24.85
2018-05-09T08:12:05.411Z,25.11
2018-05-09T08:13:58.828Z,25.00
2018-05-09T08:14:58.646Z,25.09
2018-05-09T08:16:51.979Z,25.33
2018-05-09T08:17:51.931Z,25.39
2018-05-09T08:19:45.230Z,25.39
2018-05-09T08:20:45.158Z,25.52
2018-05-09T08:22:38.554Z,25.64
2018-05-09T08:23:38.390Z,25.71
2018-05-09T08:25:31.796Z,25.94
2018-05-09T08:26:31.624Z,26.23
2018-05-09T08:28:25.015Z,25.79
2018-05-09T08:29:24.856Z,26.01
2018-05-09T08:31:18.158Z,26.00
2018-05-09T08:32:18.138Z,25.96
2018-05-09T08:34:11.390Z,26.09
2018-05-09T08:35:11.320Z,26.09
2018-05-09T08:37:05.604Z,26.34
2018-05-09T08:38:05.550Z,26.57
2018-05-09T08:39:58.962Z,26.84
2018-05-09T08:40:58.817Z,27.16
2018-05-09T08:42:52.176Z,27.45
2018-05-09T08:43:52.123Z,27.38
2018-05-09T08:45:45.358Z,27.36
2018-05-09T08:46:45.267Z,27.53
2018-05-09T08:48:38.652Z,27.31
2018-05-09T08:49:38.492Z,27.62
2018-05-09T08:51:31.819Z,27.59
2018-05-09T08:52:31.742Z,27.89
2018-05-09T08:54:25.199Z,27.80
2018-05-09T08:55:25.032Z,27.89
2018-05-09T08:57:18.334Z,27.36
2018-05-09T08:58:18.284Z,26.89
2018-05-09T09:00:11.618Z,26.49
2018-05-09T09:01:11.543Z,26.82
2018-05-09T09:03:04.810Z,26.97
2018-05-09T09:04:04.760Z,27.00
2018-05-09T09:05:59.076Z,27.08
2018-05-09T09:06:59.006Z,26.97
2018-05-09T09:08:52.345Z,27.16
2018-05-09T09:09:52.292Z,27.26
2018-05-09T09:11:46.607Z,27.93
2018-05-09T09:12:46.525Z,27.89
2018-05-09T09:14:39.854Z,28.49
2018-05-09T09:15:39.849Z,28.90
2018-05-09T09:17:33.154Z,29.15
2018-05-09T09:18:33.039Z,28.94
2018-05-09T09:20:26.409Z,28.97
2018-05-09T09:21:26.280Z,28.88
2018-05-09T09:23:19.580Z,29.23
2018-05-09T09:24:19.530Z,28.60
2018-05-09T09:26:13.826Z,28.88
2018-05-09T09:27:13.755Z,29.21
2018-05-09T09:29:07.089Z,29.58
2018-05-09T09:30:06.992Z,29.50
2018-05-09T09:32:00.354Z,29.58
2018-05-09T09:33:00.289Z,29.26
2018-05-09T09:34:53.593Z,28.80
2018-05-09T09:35:53.551Z,29.13
2018-05-09T09:37:46.832Z,29.77
2018-05-09T09:38:46.765Z,29.26
2018-05-09T09:40:40.181Z,29.51
2018-05-09T09:41:40.004Z,29.95
2018-05-09T09:43:33.399Z,30.77
2018-05-09T09:44:33.243Z,31.18
2018-05-09T09:46:26.551Z,31.56
2018-05-09T09:47:26.483Z,31.37
2018-05-09T09:49:19.778Z,30.75
2018-05-09T09:50:19.732Z,30.62
2018-05-09T09:52:13.035Z,31.26
2018-05-09T09:53:12.966Z,31.19
2018-05-09T09:55:06.353Z,31.28
2018-05-09T09:56:06.284Z,30.78
2018-05-09T09:57:59.682Z,30.32
2018-05-09T09:58:59.540Z,30.29
2018-05-09T10:00:52.850Z,31.13
2018-05-09T10:01:52.786Z,31.56
2018-05-09T10:03:46.072Z,31.33
2018-05-09T10:04:46.027Z,30.93
2018-05-09T10:06:39.340Z,30.44
2018-05-09T10:07:39.273Z,29.70
2018-05-09T10:09:32.675Z,29.15
2018-05-09T10:10:32.516Z,29.72
2018-05-09T10:12:25.832Z,30.52
2018-05-09T10:13:25.765Z,31.06
2018-05-09T10:15:19.081Z,31.33
2018-05-09T10:16:19.098Z,30.79
2018-05-09T10:18:12.337Z,30.62
2018-05-09T10:19:12.287Z,30.63
2018-05-09T10:21:05.606Z,30.66
2018-05-09T10:22:05.534Z,30.69
2018-05-09T10:23:58.937Z,30.66
2018-05-09T10:24:58.782Z,30.78
2018-05-09T10:26:52.202Z,31.49
2018-05-09T10:27:52.038Z,31.59
2018-05-09T10:29:45.328Z,32.47
2018-05-09T10:30:45.281Z,32.50
2018-05-09T10:32:38.595Z,32.52
2018-05-09T10:33:38.533Z,32.74
2018-05-09T10:35:31.953Z,32.69
2018-05-09T10:36:31.780Z,32.03
2018-05-09T10:38:25.184Z,31.22
2018-05-09T10:39:25.033Z,31.10
2018-05-09T10:41:18.365Z,31.06
2018-05-09T10:42:18.286Z,31.40
2018-05-09T10:44:11.603Z,31.22
2018-05-09T10:45:11.541Z,30.89
2018-05-09T10:47:04.962Z,29.89
2018-05-09T10:48:04.792Z,29.60
2018-05-09T10:49:58.194Z,29.73
2018-05-09T10:50:58.042Z,30.22
2018-05-09T10:52:51.464Z,31.13
2018-05-09T10:53:51.290Z,31.31
2018-05-09T10:55:44.605Z,31.44
2018-05-09T10:56:44.539Z,30.75
2018-05-09T10:58:37.834Z,29.48
2018-05-09T10:59:37.787Z,29.40
2018-05-09T11:01:31.101Z,29.28
2018-05-09T11:02:31.036Z,29.54
2018-05-09T11:04:24.335Z,29.75
2018-05-09T11:05:24.311Z,29.92
2018-05-09T11:07:17.644Z,29.40
2018-05-09T11:08:17.576Z,29.28
2018-05-09T11:10:10.869Z,29.39
2018-05-09T11:11:10.821Z,29.21
2018-05-09T11:13:04.133Z,29.01
2018-05-09T11:14:04.067Z,28.73
2018-05-09T11:15:57.413Z,28.38
2018-05-09T11:16:57.336Z,28.01
2018-05-09T11:18:50.718Z,27.71
2018-05-09T11:19:50.563Z,27.81
2018-05-09T11:21:43.877Z,27.99
2018-05-09T11:22:43.809Z,27.98
2018-05-09T11:24:37.190Z,27.96
2018-05-09T11:25:37.052Z,27.74
2018-05-09T11:27:30.364Z,27.57
2018-05-09T11:28:30.289Z,27.62
2018-05-09T11:30:23.578Z,27.83
2018-05-09T11:31:23.528Z,27.94
2018-05-09T11:33:16.837Z,27.94
2018-05-09T11:34:16.763Z,28.05
2018-05-09T11:36:10.178Z,27.89
2018-05-09T11:37:10.000Z,27.94
2018-05-09T11:39:03.896Z,27.90
2018-05-09T11:40:03.237Z,27.89
2018-05-09T11:41:56.550Z,27.87
2018-05-09T11:42:56.474Z,27.64
2018-05-09T11:44:49.768Z,27.53
2018-05-09T11:45:49.709Z,27.81
2018-05-09T11:47:43.625Z,27.61
2018-05-09T11:48:42.944Z,27.57
2018-05-09T11:50:36.339Z,27.69
2018-05-09T11:51:36.179Z,27.79
2018-05-09T11:53:29.484Z,28.03
2018-05-09T11:54:29.429Z,27.93
2018-05-09T11:56:22.726Z,28.01
2018-05-09T11:57:22.658Z,27.99
2018-05-09T11:59:15.940Z,28.03
2018-05-09T12:00:15.889Z,27.89
2018-05-09T12:02:09.329Z,27.75
2018-05-09T12:03:09.133Z,27.59
2018-05-09T12:05:02.530Z,27.89
2018-05-09T12:06:02.385Z,28.08
2018-05-09T12:07:56.685Z,28.08
2018-05-09T12:08:56.614Z,27.75
2018-05-09T12:10:50.222Z,27.65
2018-05-09T12:11:49.848Z,27.80
2018-05-09T12:13:43.135Z,27.90
2018-05-09T12:14:43.083Z,27.99
2018-05-09T12:16:36.388Z,27.98
2018-05-09T12:17:36.317Z,27.94
2018-05-09T12:19:29.605Z,27.72
2018-05-09T12:20:29.646Z,27.80
2018-05-09T12:22:22.859Z,27.91
2018-05-09T12:23:22.786Z,27.83
2018-05-09T12:25:16.177Z,27.87
2018-05-09T12:26:16.070Z,27.89
2018-05-09T12:28:09.483Z,27.98
2018-05-09T12:29:09.302Z,28.05
2018-05-09T12:31:03.625Z,28.20
2018-05-09T12:32:03.537Z,28.21
2018-05-09T12:33:56.823Z,28.35
2018-05-09T12:34:56.772Z,28.31
2018-05-09T12:36:50.074Z,28.18
2018-05-09T12:37:50.006Z,28.02
2018-05-09T12:39:43.307Z,28.05
2018-05-09T12:40:43.242Z,28.03
2018-05-09T12:42:36.598Z,28.16
2018-05-09T12:43:36.494Z,28.05
2018-05-09T12:45:29.891Z,28.09
2018-05-09T12:46:29.731Z,28.11
2018-05-09T12:48:23.051Z,28.03
2018-05-09T12:49:22.979Z,28.03
2018-05-09T12:51:16.360Z,27.66
2018-05-09T12:52:16.280Z,27.87
2018-05-09T12:54:09.571Z,28.01
2018-05-09T12:55:09.519Z,28.20
2018-05-09T12:57:02.933Z,28.48
2018-05-09T12:58:02.755Z,28.55
2018-05-09T12:59:56.049Z,28.65
2018-05-09T13:00:55.998Z,28.78
2018-05-09T13:02:49.310Z,28.57
2018-05-09T13:03:49.250Z,28.58
2018-05-09T13:05:42.537Z,28.51
2018-05-09T13:06:42.484Z,28.58
2018-05-09T13:08:35.802Z,28.30
2018-05-09T13:09:35.732Z,28.43
2018-05-09T13:11:29.143Z,28.39
2018-05-09T13:12:28.973Z,28.23
2018-05-09T13:14:22.331Z,28.08
2018-05-09T13:15:22.278Z,28.35
2018-05-09T13:17:15.585Z,28.23
2018-05-09T13:18:15.512Z,28.17
2018-05-09T13:20:08.808Z,27.80
2018-05-09T13:21:08.757Z,27.90
2018-05-09T13:23:02.070Z,28.01
2018-05-09T13:24:02.009Z,28.06
2018-05-09T13:25:55.376Z,28.24
2018-05-09T13:26:55.242Z,28.35
2018-05-09T13:28:48.658Z,28.51
2018-05-09T13:29:48.505Z,28.48
2018-05-09T13:31:41.980Z,28.67
2018-05-09T13:32:41.753Z,28.73
2018-05-09T13:34:35.142Z,29.10
2018-05-09T13:35:34.994Z,29.03
2018-05-09T13:37:28.411Z,29.14
2018-05-09T13:38:28.280Z,29.11
2018-05-09T13:40:21.578Z,28.91
2018-05-09T13:41:21.525Z,28.91
2018-05-09T13:43:14.842Z,28.64
2018-05-09T13:44:14.770Z,28.58
2018-05-09T13:46:08.081Z,28.55
2018-05-09T13:47:08.018Z,28.58
2018-05-09T13:49:01.333Z,28.48
2018-05-09T13:50:01.263Z,28.42
2018-05-09T13:51:54.678Z,28.43
2018-05-09T13:52:54.506Z,28.46
2018-05-09T13:54:48.402Z,28.75
2018-05-09T13:55:47.755Z,28.68
2018-05-09T13:57:41.065Z,28.64
2018-05-09T13:58:40.994Z,28.78
2018-05-09T14:00:34.337Z,28.94
2018-05-09T14:01:34.281Z,28.67
2018-05-09T14:03:27.695Z,28.86
2018-05-09T14:04:27.530Z,28.95
2018-05-09T14:06:20.829Z,28.85
2018-05-09T14:07:20.778Z,29.06
2018-05-09T14:09:14.096Z,28.79
2018-05-09T14:10:14.025Z,28.65
2018-05-09T14:12:07.343Z,28.90
2018-05-09T14:13:07.272Z,28.79
2018-05-09T14:15:01.571Z,28.92
2018-05-09T14:16:01.518Z,28.80
2018-05-09T14:17:54.828Z,29.05
2018-05-09T14:18:54.791Z,28.95
2018-05-09T14:20:48.152Z,28.41
2018-05-09T14:21:48.002Z,28.38
2018-05-09T14:23:41.318Z,28.26
2018-05-09T14:24:41.246Z,28.35
2018-05-09T14:26:35.148Z,28.26
2018-05-09T14:27:34.491Z,28.11
2018-05-09T14:29:27.907Z,28.01
2018-05-09T14:30:27.737Z,27.89
2018-05-09T14:32:21.125Z,27.86
2018-05-09T14:33:20.980Z,27.89
2018-05-09T14:35:14.331Z,28.02
2018-05-09T14:36:14.280Z,28.09
2018-05-09T14:38:07.594Z,27.80
2018-05-09T14:39:07.520Z,27.71
2018-05-09T14:41:00.817Z,27.57
2018-05-09T14:42:00.768Z,27.52
2018-05-09T14:43:54.080Z,27.69
2018-05-09T14:44:54.007Z,27.80
2018-05-09T14:46:47.511Z,27.93
2018-05-09T14:47:47.250Z,27.80
2018-05-09T14:49:40.668Z,27.74
2018-05-09T14:50:40.497Z,27.43
2018-05-09T14:52:33.910Z,27.24
2018-05-09T14:53:33.740Z,27.21
2018-05-09T14:55:27.134Z,27.26
2018-05-09T14:56:26.982Z,27.26
2018-05-09T14:58:20.352Z,27.38
2018-05-09T14:59:20.283Z,27.45
2018-05-09T15:01:13.636Z,27.27
2018-05-09T15:02:13.529Z,27.21
2018-05-09T15:04:06.842Z,27.15
2018-05-09T15:05:06.790Z,27.11
2018-05-09T15:07:00.064Z,27.15
2018-05-09T15:08:00.013Z,27.21
2018-05-09T15:09:54.348Z,27.28
2018-05-09T15:10:54.276Z,27.34
2018-05-09T15:12:47.589Z,27.42
2018-05-09T15:13:47.519Z,27.45
2018-05-09T15:15:40.911Z,27.46
2018-05-09T15:16:40.760Z,27.30
2018-05-09T15:18:34.076Z,27.43
2018-05-09T15:19:34.071Z,27.41
2018-05-09T15:21:27.295Z,27.37
2018-05-09T15:22:27.247Z,27.31
2018-05-09T15:24:20.556Z,27.34
2018-05-09T15:25:20.539Z,27.31
2018-05-09T15:27:13.770Z,27.24
2018-05-09T15:28:13.717Z,27.31
2018-05-09T15:30:07.032Z,27.45
2018-05-09T15:31:06.958Z,27.46
2018-05-09T15:33:00.351Z,27.41
2018-05-09T15:34:00.276Z,27.53
2018-05-09T15:35:53.573Z,27.59
2018-05-09T15:36:53.521Z,27.52
2018-05-09T15:38:46.919Z,27.42
2018-05-09T15:39:46.762Z,27.36
2018-05-09T15:41:40.058Z,27.13
2018-05-09T15:42:40.006Z,27.09
2018-05-09T15:44:33.323Z,27.24
2018-05-09T15:45:33.248Z,27.23
2018-05-09T15:47:26.533Z,27.28
2018-05-09T15:48:26.480Z,27.33
2018-05-09T15:50:19.851Z,27.53
2018-05-09T15:51:19.724Z,27.55
2018-05-09T15:53:13.056Z,27.65
2018-05-09T15:54:12.983Z,27.72
2018-05-09T15:56:06.379Z,27.59
2018-05-09T15:57:06.294Z,27.64
2018-05-09T15:58:59.609Z,27.41
2018-05-09T15:59:59.537Z,27.49
2018-05-09T16:01:52.832Z,27.46
2018-05-09T16:02:52.779Z,27.28
2018-05-09T16:04:46.097Z,27.19
2018-05-09T16:05:46.024Z,27.15
2018-05-09T16:07:39.320Z,27.13
2018-05-09T16:08:39.268Z,27.21
2018-05-09T16:10:32.705Z,27.12
2018-05-09T16:11:32.512Z,26.96
2018-05-09T16:13:25.923Z,27.04
2018-05-09T16:14:25.752Z,27.11
2018-05-09T16:16:19.047Z,27.00
2018-05-09T16:17:18.994Z,27.06
2018-05-09T16:19:12.322Z,26.93
2018-05-09T16:20:12.250Z,26.90
2018-05-09T16:22:05.546Z,27.00
2018-05-09T16:23:05.507Z,27.06
2018-05-09T16:24:59.804Z,26.93
2018-05-09T16:25:59.733Z,26.94
2018-05-09T16:27:53.032Z,26.91
2018-05-09T16:28:52.975Z,26.97
2018-05-09T16:30:46.293Z,27.00
2018-05-09T16:31:46.217Z,27.11
2018-05-09T16:33:39.533Z,27.21
2018-05-09T16:34:39.459Z,27.04
2018-05-09T16:36:32.855Z,27.12
2018-05-09T16:37:32.699Z,26.99
2018-05-09T16:39:26.026Z,26.86
2018-05-09T16:40:25.946Z,26.89
2018-05-09T16:42:19.249Z,26.81
2018-05-09T16:43:19.183Z,26.74
2018-05-09T16:45:12.495Z,26.71
2018-05-09T16:46:12.422Z,26.71
2018-05-09T16:48:05.717Z,26.74
2018-05-09T16:49:05.668Z,26.81
2018-05-09T16:50:58.974Z,26.91
2018-05-09T16:51:58.902Z,26.91
2018-05-09T16:53:52.216Z,26.90
2018-05-09T16:54:52.143Z,26.86
2018-05-09T16:56:45.443Z,26.99
2018-05-09T16:57:45.389Z,27.00
2018-05-09T16:59:38.715Z,27.01
2018-05-09T17:00:38.633Z,26.81
2018-05-09T17:02:32.023Z,26.75
2018-05-09T17:03:31.871Z,26.68
2018-05-09T17:05:25.324Z,26.87
2018-05-09T17:06:25.116Z,26.99
2018-05-09T17:08:18.412Z,27.08
2018-05-09T17:09:18.355Z,27.11
2018-05-09T17:11:11.670Z,26.99
2018-05-09T17:12:11.596Z,27.01
2018-05-09T17:14:04.929Z,27.00
2018-05-09T17:15:04.870Z,27.04
2018-05-09T17:16:58.162Z,26.99
2018-05-09T17:17:58.107Z,26.90
2018-05-09T17:19:51.427Z,26.87
2018-05-09T17:20:51.349Z,26.75
2018-05-09T17:22:44.643Z,26.79
2018-05-09T17:23:44.589Z,26.72
2018-05-09T17:25:37.901Z,26.81
2018-05-09T17:26:37.835Z,26.81
2018-05-09T17:28:31.123Z,26.69
2018-05-09T17:29:31.069Z,26.61
2018-05-09T17:31:24.382Z,26.45
2018-05-09T17:32:24.311Z,26.32
2018-05-09T17:34:17.624Z,26.15
2018-05-09T17:35:17.549Z,26.04
2018-05-09T17:37:10.844Z,26.09
2018-05-09T17:38:10.791Z,26.11
2018-05-09T17:40:04.112Z,26.22
2018-05-09T17:41:04.029Z,26.20
2018-05-09T17:42:57.330Z,26.26
2018-05-09T17:43:57.275Z,26.23
2018-05-09T17:45:50.588Z,26.22
2018-05-09T17:46:50.533Z,26.20
2018-05-09T17:48:43.828Z,26.16
2018-05-09T17:49:43.773Z,26.07
2018-05-09T17:51:37.084Z,26.06
2018-05-09T17:52:37.011Z,26.04
2018-05-09T17:54:30.326Z,25.89
2018-05-09T17:55:30.252Z,25.86
2018-05-09T17:57:23.537Z,25.93
2018-05-09T17:58:23.483Z,25.91
2018-05-09T18:00:16.794Z,25.78
2018-05-09T18:01:16.719Z,25.79
2018-05-09T18:03:10.016Z,25.64
2018-05-09T18:04:09.961Z,25.70
2018-05-09T18:06:03.348Z,25.51
2018-05-09T18:07:03.276Z,25.51
2018-05-09T18:08:56.568Z,25.60
2018-05-09T18:09:56.513Z,25.48
2018-05-09T18:11:49.827Z,25.48
2018-05-09T18:12:49.753Z,25.54
2018-05-09T18:14:43.160Z,25.49
2018-05-09T18:15:42.993Z,25.57
2018-05-09T18:17:36.273Z,25.39
2018-05-09T18:18:36.228Z,25.34
2018-05-09T18:20:29.620Z,25.33
2018-05-09T18:21:29.455Z,25.33
2018-05-09T18:23:22.752Z,25.26
2018-05-09T18:24:22.697Z,25.17
2018-05-09T18:26:16.107Z,25.15
2018-05-09T18:27:15.934Z,25.17
2018-05-09T18:29:09.229Z,25.12
2018-05-09T18:30:09.172Z,25.14
2018-05-09T18:32:02.483Z,25.14
2018-05-09T18:33:02.411Z,25.15
2018-05-09T18:34:55.729Z,25.19